sensor_id;sensor_type;location;lat;lon;timestamp;P1;durP1;ratioP1;P2;durP2;ratioP2
13834;SDS011;6988;52.614;13.500;2022-11-20T00:03:06;22.27;;;16.57;;
13834;SDS011;6988;52.614;13.500;2022-11-20T00:07:57;21.97;;;16.57;;
13834;SDS011;6988;52.614;13.500;2022-11-20T00:12:49;23.90;;;16.70;;
13834;SDS011;6988;52.614;13.500;2022-11-20T00:17:41;23.40;;;16.73;;
13834;SDS011;6988;52.614;13.500;2022-11-20T00:22:34;22.97;;;16.97;;
13834;SDS011;6988;52.614;13.500;2022-11-20T00:27:26;25.43;;;17.63;;
13834;SDS011;6988;52.614;13.500;2022-11-20T00:32:18;21.80;;;16.10;;
13834;SDS011;6988;52.614;13.500;2022-11-20T00:37:09;23.73;;;16.40;;
13834;SDS011;6988;52.614;13.500;2022-11-20T00:42:03;22.53;;;16.50;;
13834;SDS011;6988;52.614;13.500;2022-11-20T00:46:54;22.97;;;15.53;;
13834;SDS011;6988;52.614;13.500;2022-11-20T00:51:46;20.77;;;15.60;;
13834;SDS011;6988;52.614;13.500;2022-11-20T00:56:38;23.10;;;16.13;;
13834;SDS011;6988;52.614;13.500;2022-11-20T01:01:31;24.43;;;16.33;;
13834;SDS011;6988;52.614;13.500;2022-11-20T01:06:24;19.97;;;15.17;;
13834;SDS011;6988;52.614;13.500;2022-11-20T01:11:21;20.30;;;15.27;;
13834;SDS011;6988;52.614;13.500;2022-11-20T01:16:16;22.60;;;15.90;;
13834;SDS011;6988;52.614;13.500;2022-11-20T01:21:12;23.43;;;15.90;;
13834;SDS011;6988;52.614;13.500;2022-11-20T01:26:07;22.17;;;15.93;;
13834;SDS011;6988;52.614;13.500;2022-11-20T01:31:02;22.27;;;15.27;;
13834;SDS011;6988;52.614;13.500;2022-11-20T01:36:03;20.37;;;15.27;;
13834;SDS011;6988;52.614;13.500;2022-11-20T01:40:59;22.37;;;15.53;;
13834;SDS011;6988;52.614;13.500;2022-11-20T01:46:02;22.03;;;15.67;;
13834;SDS011;6988;52.614;13.500;2022-11-20T01:51:06;21.60;;;15.37;;
13834;SDS011;6988;52.614;13.500;2022-11-20T01:56:09;22.97;;;15.53;;
13834;SDS011;6988;52.614;13.500;2022-11-20T02:01:04;22.87;;;15.90;;
13834;SDS011;6988;52.614;13.500;2022-11-20T02:05:57;21.23;;;14.50;;
13834;SDS011;6988;52.614;13.500;2022-11-20T02:10:58;20.77;;;14.87;;
13834;SDS011;6988;52.614;13.500;2022-11-20T02:15:52;21.83;;;15.43;;
13834;SDS011;6988;52.614;13.500;2022-11-20T02:20:45;22.33;;;15.20;;
13834;SDS011;6988;52.614;13.500;2022-11-20T02:25:42;21.93;;;15.97;;
13834;SDS011;6988;52.614;13.500;2022-11-20T02:30:36;22.27;;;15.57;;
13834;SDS011;6988;52.614;13.500;2022-11-20T02:35:39;23.73;;;16.20;;
13834;SDS011;6988;52.614;13.500;2022-11-20T02:40:34;21.37;;;15.40;;
13834;SDS011;6988;52.614;13.500;2022-11-20T02:45:27;19.33;;;15.50;;
13834;SDS011;6988;52.614;13.500;2022-11-20T02:50:19;19.47;;;15.00;;
13834;SDS011;6988;52.614;13.500;2022-11-20T02:55:12;22.97;;;15.50;;
13834;SDS011;6988;52.614;13.500;2022-11-20T03:00:05;22.67;;;15.87;;
13834;SDS011;6988;52.614;13.500;2022-11-20T03:04:59;20.57;;;15.77;;
13834;SDS011;6988;52.614;13.500;2022-11-20T03:09:51;19.60;;;15.60;;
13834;SDS011;6988;52.614;13.500;2022-11-20T03:14:43;20.67;;;15.83;;
13834;SDS011;6988;52.614;13.500;2022-11-20T03:19:35;22.80;;;16.83;;
13834;SDS011;6988;52.614;13.500;2022-11-20T03:24:28;24.20;;;17.60;;
13834;SDS011;6988;52.614;13.500;2022-11-20T03:29:20;25.43;;;16.77;;
13834;SDS011;6988;52.614;13.500;2022-11-20T03:34:12;21.73;;;15.83;;
13834;SDS011;6988;52.614;13.500;2022-11-20T03:39:05;22.93;;;17.10;;
13834;SDS011;6988;52.614;13.500;2022-11-20T03:43:59;21.47;;;16.63;;
13834;SDS011;6988;52.614;13.500;2022-11-20T03:48:54;23.70;;;17.80;;
13834;SDS011;6988;52.614;13.500;2022-11-20T03:53:47;23.53;;;17.90;;
13834;SDS011;6988;52.614;13.500;2022-11-20T03:58:41;23.17;;;16.23;;
13834;SDS011;6988;52.614;13.500;2022-11-20T04:03:35;22.90;;;17.23;;
13834;SDS011;6988;52.614;13.500;2022-11-20T04:08:29;26.20;;;17.97;;
13834;SDS011;6988;52.614;13.500;2022-11-20T04:13:22;23.30;;;16.80;;
13834;SDS011;6988;52.614;13.500;2022-11-20T04:18:13;24.07;;;17.50;;
13834;SDS011;6988;52.614;13.500;2022-11-20T04:23:07;23.67;;;17.93;;
13834;SDS011;6988;52.614;13.500;2022-11-20T04:27:59;23.40;;;16.63;;
13834;SDS011;6988;52.614;13.500;2022-11-20T04:32:51;25.27;;;18.00;;
13834;SDS011;6988;52.614;13.500;2022-11-20T04:37:43;23.37;;;17.60;;
13834;SDS011;6988;52.614;13.500;2022-11-20T04:42:36;23.03;;;17.57;;
13834;SDS011;6988;52.614;13.500;2022-11-20T04:47:28;23.97;;;18.37;;
13834;SDS011;6988;52.614;13.500;2022-11-20T04:52:20;25.50;;;18.87;;
13834;SDS011;6988;52.614;13.500;2022-11-20T04:57:12;26.60;;;18.97;;
13834;SDS011;6988;52.614;13.500;2022-11-20T05:02:07;25.77;;;18.83;;
13834;SDS011;6988;52.614;13.500;2022-11-20T05:06:58;27.87;;;18.90;;
13834;SDS011;6988;52.614;13.500;2022-11-20T05:11:50;25.73;;;18.33;;
13834;SDS011;6988;52.614;13.500;2022-11-20T05:16:42;23.40;;;17.60;;
13834;SDS011;6988;52.614;13.500;2022-11-20T05:21:37;25.27;;;17.97;;
13834;SDS011;6988;52.614;13.500;2022-11-20T05:26:29;25.87;;;18.23;;
13834;SDS011;6988;52.614;13.500;2022-11-20T05:31:22;25.40;;;18.30;;
13834;SDS011;6988;52.614;13.500;2022-11-20T05:36:16;24.87;;;17.33;;
13834;SDS011;6988;52.614;13.500;2022-11-20T05:41:10;24.63;;;18.07;;
13834;SDS011;6988;52.614;13.500;2022-11-20T05:46:05;23.87;;;17.27;;
13834;SDS011;6988;52.614;13.500;2022-11-20T05:51:00;23.20;;;17.63;;
13834;SDS011;6988;52.614;13.500;2022-11-20T05:55:57;23.30;;;17.77;;
13834;SDS011;6988;52.614;13.500;2022-11-20T06:00:51;24.20;;;17.60;;
13834;SDS011;6988;52.614;13.500;2022-11-20T06:05:43;24.13;;;17.60;;
13834;SDS011;6988;52.614;13.500;2022-11-20T06:10:35;22.33;;;17.00;;
13834;SDS011;6988;52.614;13.500;2022-11-20T06:15:27;25.67;;;17.83;;
13834;SDS011;6988;52.614;13.500;2022-11-20T06:20:20;24.10;;;17.20;;
13834;SDS011;6988;52.614;13.500;2022-11-20T06:25:12;23.97;;;17.40;;
13834;SDS011;6988;52.614;13.500;2022-11-20T06:30:05;25.80;;;17.57;;
13834;SDS011;6988;52.614;13.500;2022-11-20T06:34:58;23.70;;;17.57;;
13834;SDS011;6988;52.614;13.500;2022-11-20T06:39:51;26.00;;;17.40;;
13834;SDS011;6988;52.614;13.500;2022-11-20T06:44:43;28.03;;;18.83;;
13834;SDS011;6988;52.614;13.500;2022-11-20T06:49:35;22.47;;;16.77;;
13834;SDS011;6988;52.614;13.500;2022-11-20T06:54:28;25.57;;;16.70;;
13834;SDS011;6988;52.614;13.500;2022-11-20T06:59:21;27.43;;;19.13;;
13834;SDS011;6988;52.614;13.500;2022-11-20T07:04:13;27.57;;;18.90;;
13834;SDS011;6988;52.614;13.500;2022-11-20T07:09:06;27.80;;;19.93;;
13834;SDS011;6988;52.614;13.500;2022-11-20T07:13:58;28.13;;;20.03;;
13834;SDS011;6988;52.614;13.500;2022-11-20T07:18:53;27.43;;;19.47;;
13834;SDS011;6988;52.614;13.500;2022-11-20T07:23:45;24.33;;;17.37;;
13834;SDS011;6988;52.614;13.500;2022-11-20T07:28:37;24.33;;;17.70;;
13834;SDS011;6988;52.614;13.500;2022-11-20T07:33:29;22.53;;;16.97;;
13834;SDS011;6988;52.614;13.500;2022-11-20T07:38:22;23.20;;;16.90;;
13834;SDS011;6988;52.614;13.500;2022-11-20T07:43:14;21.53;;;16.53;;
13834;SDS011;6988;52.614;13.500;2022-11-20T07:48:06;21.67;;;16.67;;
13834;SDS011;6988;52.614;13.500;2022-11-20T07:53:01;22.97;;;17.23;;
13834;SDS011;6988;52.614;13.500;2022-11-20T07:57:56;22.63;;;17.40;;
13834;SDS011;6988;52.614;13.500;2022-11-20T08:02:48;23.50;;;17.50;;
13834;SDS011;6988;52.614;13.500;2022-11-20T08:07:41;24.90;;;18.07;;
13834;SDS011;6988;52.614;13.500;2022-11-20T08:12:34;23.10;;;17.40;;
13834;SDS011;6988;52.614;13.500;2022-11-20T08:18:00;24.93;;;17.50;;
13834;SDS011;6988;52.614;13.500;2022-11-20T08:22:57;23.00;;;17.20;;
13834;SDS011;6988;52.614;13.500;2022-11-20T08:27:50;21.43;;;16.67;;
13834;SDS011;6988;52.614;13.500;2022-11-20T08:32:42;22.87;;;17.27;;
13834;SDS011;6988;52.614;13.500;2022-11-20T08:37:35;24.23;;;17.37;;
13834;SDS011;6988;52.614;13.500;2022-11-20T08:42:31;20.23;;;16.87;;
13834;SDS011;6988;52.614;13.500;2022-11-20T08:47:23;24.70;;;17.10;;
13834;SDS011;6988;52.614;13.500;2022-11-20T08:52:15;28.37;;;19.17;;
13834;SDS011;6988;52.614;13.500;2022-11-20T08:57:08;25.70;;;19.13;;
13834;SDS011;6988;52.614;13.500;2022-11-20T09:01:59;23.53;;;17.83;;
13834;SDS011;6988;52.614;13.500;2022-11-20T09:06:51;26.53;;;18.37;;
13834;SDS011;6988;52.614;13.500;2022-11-20T09:11:43;24.47;;;18.10;;
13834;SDS011;6988;52.614;13.500;2022-11-20T09:16:37;24.73;;;18.07;;
13834;SDS011;6988;52.614;13.500;2022-11-20T09:21:28;25.33;;;18.10;;
13834;SDS011;6988;52.614;13.500;2022-11-20T09:26:20;27.40;;;19.50;;
13834;SDS011;6988;52.614;13.500;2022-11-20T09:31:15;25.63;;;19.13;;
13834;SDS011;6988;52.614;13.500;2022-11-20T09:36:15;25.80;;;18.63;;
13834;SDS011;6988;52.614;13.500;2022-11-20T09:41:10;24.50;;;18.37;;
13834;SDS011;6988;52.614;13.500;2022-11-20T09:46:29;25.23;;;19.00;;
13834;SDS011;6988;52.614;13.500;2022-11-20T09:51:34;25.07;;;18.57;;
13834;SDS011;6988;52.614;13.500;2022-11-20T09:56:39;26.90;;;19.93;;
13834;SDS011;6988;52.614;13.500;2022-11-20T10:01:35;26.13;;;19.10;;
13834;SDS011;6988;52.614;13.500;2022-11-20T10:06:31;26.00;;;18.23;;
13834;SDS011;6988;52.614;13.500;2022-11-20T10:11:34;24.93;;;17.53;;
13834;SDS011;6988;52.614;13.500;2022-11-20T10:16:47;23.13;;;16.83;;
13834;SDS011;6988;52.614;13.500;2022-11-20T10:21:57;22.43;;;17.00;;
13834;SDS011;6988;52.614;13.500;2022-11-20T10:27:05;22.03;;;16.50;;
13834;SDS011;6988;52.614;13.500;2022-11-20T10:32:23;20.70;;;15.57;;
13834;SDS011;6988;52.614;13.500;2022-11-20T10:37:26;21.87;;;16.20;;
13834;SDS011;6988;52.614;13.500;2022-11-20T10:42:25;20.83;;;16.03;;
13834;SDS011;6988;52.614;13.500;2022-11-20T10:47:27;21.60;;;16.37;;
13834;SDS011;6988;52.614;13.500;2022-11-20T10:52:25;22.77;;;15.77;;
13834;SDS011;6988;52.614;13.500;2022-11-20T10:57:32;24.53;;;16.20;;
13834;SDS011;6988;52.614;13.500;2022-11-20T11:02:46;22.33;;;16.00;;
13834;SDS011;6988;52.614;13.500;2022-11-20T11:07:41;20.90;;;15.33;;
13834;SDS011;6988;52.614;13.500;2022-11-20T11:12:36;23.13;;;16.37;;
13834;SDS011;6988;52.614;13.500;2022-11-20T11:17:35;19.57;;;15.83;;
13834;SDS011;6988;52.614;13.500;2022-11-20T11:22:44;19.90;;;14.80;;
13834;SDS011;6988;52.614;13.500;2022-11-20T11:27:45;20.63;;;15.13;;
13834;SDS011;6988;52.614;13.500;2022-11-20T11:32:37;21.27;;;15.60;;
13834;SDS011;6988;52.614;13.500;2022-11-20T11:37:32;21.23;;;14.93;;
13834;SDS011;6988;52.614;13.500;2022-11-20T11:42:28;18.67;;;13.90;;
13834;SDS011;6988;52.614;13.500;2022-11-20T11:47:21;18.70;;;13.37;;
13834;SDS011;6988;52.614;13.500;2022-11-20T11:52:20;17.33;;;13.40;;
13834;SDS011;6988;52.614;13.500;2022-11-20T11:57:16;16.73;;;13.47;;
13834;SDS011;6988;52.614;13.500;2022-11-20T12:02:24;18.60;;;13.40;;
13834;SDS011;6988;52.614;13.500;2022-11-20T12:07:29;18.57;;;13.83;;
13834;SDS011;6988;52.614;13.500;2022-11-20T12:12:32;18.13;;;14.30;;
13834;SDS011;6988;52.614;13.500;2022-11-20T12:17:36;20.60;;;14.03;;
13834;SDS011;6988;52.614;13.500;2022-11-20T12:22:31;17.03;;;13.93;;
13834;SDS011;6988;52.614;13.500;2022-11-20T12:27:39;19.90;;;14.03;;
13834;SDS011;6988;52.614;13.500;2022-11-20T12:38:37;18.97;;;13.67;;
13834;SDS011;6988;52.614;13.500;2022-11-20T12:43:51;16.57;;;13.00;;
13834;SDS011;6988;52.614;13.500;2022-11-20T12:49:26;18.30;;;14.03;;
13834;SDS011;6988;52.614;13.500;2022-11-20T13:00:06;16.37;;;13.30;;
13834;SDS011;6988;52.614;13.500;2022-11-20T13:05:09;17.60;;;12.13;;
13834;SDS011;6988;52.614;13.500;2022-11-20T13:10:14;13.53;;;10.70;;
13834;SDS011;6988;52.614;13.500;2022-11-20T13:15:17;14.67;;;10.97;;
13834;SDS011;6988;52.614;13.500;2022-11-20T13:20:25;14.87;;;10.90;;
13834;SDS011;6988;52.614;13.500;2022-11-20T13:25:24;15.77;;;10.60;;
13834;SDS011;6988;52.614;13.500;2022-11-20T13:30:18;15.77;;;10.90;;
13834;SDS011;6988;52.614;13.500;2022-11-20T13:35:23;13.17;;;9.33;;
13834;SDS011;6988;52.614;13.500;2022-11-20T13:40:23;14.13;;;10.80;;
13834;SDS011;6988;52.614;13.500;2022-11-20T13:45:21;15.33;;;10.57;;
13834;SDS011;6988;52.614;13.500;2022-11-20T13:50:17;14.97;;;10.60;;
13834;SDS011;6988;52.614;13.500;2022-11-20T13:55:15;14.10;;;11.20;;
13834;SDS011;6988;52.614;13.500;2022-11-20T14:00:15;15.33;;;11.30;;
13834;SDS011;6988;52.614;13.500;2022-11-20T14:05:15;15.73;;;12.10;;
13834;SDS011;6988;52.614;13.500;2022-11-20T14:10:20;18.60;;;12.70;;
13834;SDS011;6988;52.614;13.500;2022-11-20T14:15:23;16.53;;;12.47;;
13834;SDS011;6988;52.614;13.500;2022-11-20T14:20:18;17.80;;;12.77;;
13834;SDS011;6988;52.614;13.500;2022-11-20T14:25:18;18.43;;;12.93;;
13834;SDS011;6988;52.614;13.500;2022-11-20T14:30:18;15.63;;;12.17;;
13834;SDS011;6988;52.614;13.500;2022-11-20T14:35:13;16.23;;;12.57;;
13834;SDS011;6988;52.614;13.500;2022-11-20T14:40:25;17.73;;;13.03;;
13834;SDS011;6988;52.614;13.500;2022-11-20T14:45:20;17.07;;;12.90;;
13834;SDS011;6988;52.614;13.500;2022-11-20T14:50:15;17.17;;;12.40;;
13834;SDS011;6988;52.614;13.500;2022-11-20T14:55:13;15.93;;;12.27;;
13834;SDS011;6988;52.614;13.500;2022-11-20T15:00:19;15.97;;;12.90;;
13834;SDS011;6988;52.614;13.500;2022-11-20T15:05:15;17.60;;;13.43;;
13834;SDS011;6988;52.614;13.500;2022-11-20T15:10:10;17.23;;;12.83;;
13834;SDS011;6988;52.614;13.500;2022-11-20T15:15:06;17.13;;;13.03;;
13834;SDS011;6988;52.614;13.500;2022-11-20T15:20:03;18.40;;;12.83;;
13834;SDS011;6988;52.614;13.500;2022-11-20T15:25:08;15.80;;;13.17;;
13834;SDS011;6988;52.614;13.500;2022-11-20T15:30:11;19.90;;;14.23;;
13834;SDS011;6988;52.614;13.500;2022-11-20T15:35:06;18.23;;;14.30;;
13834;SDS011;6988;52.614;13.500;2022-11-20T15:40:01;19.17;;;14.10;;
13834;SDS011;6988;52.614;13.500;2022-11-20T15:44:54;16.23;;;12.37;;
13834;SDS011;6988;52.614;13.500;2022-11-20T15:49:47;20.00;;;13.27;;
13834;SDS011;6988;52.614;13.500;2022-11-20T15:54:39;18.10;;;12.67;;
13834;SDS011;6988;52.614;13.500;2022-11-20T15:59:31;19.03;;;13.13;;
13834;SDS011;6988;52.614;13.500;2022-11-20T16:04:23;17.80;;;12.37;;
13834;SDS011;6988;52.614;13.500;2022-11-20T16:09:16;15.43;;;11.63;;
13834;SDS011;6988;52.614;13.500;2022-11-20T16:14:08;18.03;;;12.83;;
13834;SDS011;6988;52.614;13.500;2022-11-20T16:19:19;17.97;;;13.63;;
13834;SDS011;6988;52.614;13.500;2022-11-20T16:24:12;16.33;;;12.60;;
13834;SDS011;6988;52.614;13.500;2022-11-20T16:29:06;18.63;;;12.97;;
13834;SDS011;6988;52.614;13.500;2022-11-20T16:34:00;16.67;;;12.80;;
13834;SDS011;6988;52.614;13.500;2022-11-20T16:38:55;16.67;;;13.20;;
13834;SDS011;6988;52.614;13.500;2022-11-20T16:43:49;18.27;;;13.63;;
13834;SDS011;6988;52.614;13.500;2022-11-20T16:48:45;16.43;;;12.17;;
13834;SDS011;6988;52.614;13.500;2022-11-20T16:53:44;17.77;;;12.93;;
13834;SDS011;6988;52.614;13.500;2022-11-20T16:58:36;17.27;;;13.27;;
13834;SDS011;6988;52.614;13.500;2022-11-20T17:03:31;17.37;;;13.50;;
13834;SDS011;6988;52.614;13.500;2022-11-20T17:08:26;18.20;;;13.27;;
13834;SDS011;6988;52.614;13.500;2022-11-20T17:13:19;17.17;;;13.10;;
13834;SDS011;6988;52.614;13.500;2022-11-20T17:18:11;16.60;;;13.17;;
13834;SDS011;6988;52.614;13.500;2022-11-20T17:23:03;17.90;;;13.40;;
13834;SDS011;6988;52.614;13.500;2022-11-20T17:27:56;18.40;;;13.00;;
13834;SDS011;6988;52.614;13.500;2022-11-20T17:32:48;17.37;;;12.47;;
13834;SDS011;6988;52.614;13.500;2022-11-20T17:37:40;16.70;;;13.47;;
13834;SDS011;6988;52.614;13.500;2022-11-20T17:42:31;17.60;;;12.23;;
13834;SDS011;6988;52.614;13.500;2022-11-20T17:47:27;14.63;;;12.30;;
13834;SDS011;6988;52.614;13.500;2022-11-20T17:52:19;16.57;;;12.63;;
13834;SDS011;6988;52.614;13.500;2022-11-20T17:57:12;16.77;;;12.83;;
13834;SDS011;6988;52.614;13.500;2022-11-20T18:02:21;16.57;;;12.73;;
13834;SDS011;6988;52.614;13.500;2022-11-20T18:07:15;15.90;;;12.30;;
13834;SDS011;6988;52.614;13.500;2022-11-20T18:12:07;15.13;;;11.53;;
13834;SDS011;6988;52.614;13.500;2022-11-20T18:17:00;15.50;;;11.80;;
13834;SDS011;6988;52.614;13.500;2022-11-20T18:21:55;16.47;;;12.30;;
13834;SDS011;6988;52.614;13.500;2022-11-20T18:26:48;18.20;;;13.10;;
13834;SDS011;6988;52.614;13.500;2022-11-20T18:31:40;16.13;;;13.30;;
13834;SDS011;6988;52.614;13.500;2022-11-20T18:36:32;17.87;;;12.23;;
13834;SDS011;6988;52.614;13.500;2022-11-20T18:41:25;14.77;;;11.80;;
13834;SDS011;6988;52.614;13.500;2022-11-20T18:46:38;14.50;;;11.50;;
13834;SDS011;6988;52.614;13.500;2022-11-20T18:51:30;15.57;;;12.47;;
13834;SDS011;6988;52.614;13.500;2022-11-20T18:56:22;16.47;;;12.00;;
13834;SDS011;6988;52.614;13.500;2022-11-20T19:01:14;17.33;;;11.90;;
13834;SDS011;6988;52.614;13.500;2022-11-20T19:06:11;14.00;;;10.90;;
13834;SDS011;6988;52.614;13.500;2022-11-20T19:11:06;16.90;;;12.07;;
13834;SDS011;6988;52.614;13.500;2022-11-20T19:16:00;16.27;;;12.47;;
13834;SDS011;6988;52.614;13.500;2022-11-20T19:20:53;15.97;;;11.53;;
13834;SDS011;6988;52.614;13.500;2022-11-20T19:25:46;15.63;;;12.17;;
13834;SDS011;6988;52.614;13.500;2022-11-20T19:30:38;15.63;;;11.67;;
13834;SDS011;6988;52.614;13.500;2022-11-20T19:35:30;16.53;;;12.43;;
13834;SDS011;6988;52.614;13.500;2022-11-20T19:40:26;16.17;;;11.80;;
13834;SDS011;6988;52.614;13.500;2022-11-20T19:45:19;15.73;;;12.33;;
13834;SDS011;6988;52.614;13.500;2022-11-20T19:50:11;16.80;;;13.30;;
13834;SDS011;6988;52.614;13.500;2022-11-20T19:55:03;16.43;;;11.93;;
13834;SDS011;6988;52.614;13.500;2022-11-20T19:59:55;17.20;;;12.87;;
13834;SDS011;6988;52.614;13.500;2022-11-20T20:04:49;16.07;;;13.33;;
13834;SDS011;6988;52.614;13.500;2022-11-20T20:09:43;15.77;;;12.40;;
13834;SDS011;6988;52.614;13.500;2022-11-20T20:14:35;16.97;;;12.80;;
13834;SDS011;6988;52.614;13.500;2022-11-20T20:19:27;16.40;;;12.00;;
13834;SDS011;6988;52.614;13.500;2022-11-20T20:24:20;18.33;;;13.60;;
13834;SDS011;6988;52.614;13.500;2022-11-20T20:29:12;17.67;;;13.10;;
13834;SDS011;6988;52.614;13.500;2022-11-20T20:34:04;18.73;;;13.57;;
13834;SDS011;6988;52.614;13.500;2022-11-20T20:38:57;16.73;;;13.57;;
13834;SDS011;6988;52.614;13.500;2022-11-20T20:43:53;17.07;;;12.47;;
13834;SDS011;6988;52.614;13.500;2022-11-20T20:49:02;17.00;;;13.00;;
13834;SDS011;6988;52.614;13.500;2022-11-20T20:53:54;17.07;;;12.37;;
13834;SDS011;6988;52.614;13.500;2022-11-20T20:58:46;17.47;;;13.37;;
13834;SDS011;6988;52.614;13.500;2022-11-20T21:03:40;19.63;;;13.40;;
13834;SDS011;6988;52.614;13.500;2022-11-20T21:08:32;19.67;;;14.23;;
13834;SDS011;6988;52.614;13.500;2022-11-20T21:13:25;18.07;;;12.83;;
13834;SDS011;6988;52.614;13.500;2022-11-20T21:18:18;16.27;;;13.27;;
13834;SDS011;6988;52.614;13.500;2022-11-20T21:23:13;17.20;;;13.73;;
13834;SDS011;6988;52.614;13.500;2022-11-20T21:28:05;15.80;;;12.00;;
13834;SDS011;6988;52.614;13.500;2022-11-20T21:32:58;14.37;;;12.00;;
13834;SDS011;6988;52.614;13.500;2022-11-20T21:37:50;17.07;;;13.23;;
13834;SDS011;6988;52.614;13.500;2022-11-20T21:42:46;16.33;;;13.50;;
13834;SDS011;6988;52.614;13.500;2022-11-20T21:47:38;22.20;;;14.70;;
13834;SDS011;6988;52.614;13.500;2022-11-20T21:52:30;19.53;;;14.90;;
13834;SDS011;6988;52.614;13.500;2022-11-20T21:57:21;18.50;;;15.10;;
13834;SDS011;6988;52.614;13.500;2022-11-20T22:02:15;18.77;;;14.30;;
13834;SDS011;6988;52.614;13.500;2022-11-20T22:07:07;17.20;;;13.27;;
13834;SDS011;6988;52.614;13.500;2022-11-20T22:11:58;18.20;;;13.87;;
13834;SDS011;6988;52.614;13.500;2022-11-20T22:16:51;16.80;;;13.77;;
13834;SDS011;6988;52.614;13.500;2022-11-20T22:21:45;18.53;;;14.03;;
13834;SDS011;6988;52.614;13.500;2022-11-20T22:26:38;16.63;;;14.23;;
13834;SDS011;6988;52.614;13.500;2022-11-20T22:31:30;19.60;;;14.77;;
13834;SDS011;6988;52.614;13.500;2022-11-20T22:36:23;18.70;;;14.40;;
13834;SDS011;6988;52.614;13.500;2022-11-20T22:41:19;16.20;;;13.60;;
13834;SDS011;6988;52.614;13.500;2022-11-20T23:04:34;21.33;;;17.20;;
13834;SDS011;6988;52.614;13.500;2022-11-20T23:09:25;22.77;;;17.53;;
13834;SDS011;6988;52.614;13.500;2022-11-20T23:14:18;21.17;;;16.57;;
13834;SDS011;6988;52.614;13.500;2022-11-20T23:19:11;18.87;;;15.17;;
13834;SDS011;6988;52.614;13.500;2022-11-20T23:24:06;15.43;;;11.73;;
13834;SDS011;6988;52.614;13.500;2022-11-20T23:28:59;17.10;;;14.03;;
13834;SDS011;6988;52.614;13.500;2022-11-20T23:33:51;19.03;;;14.70;;
13834;SDS011;6988;52.614;13.500;2022-11-20T23:38:44;17.67;;;14.60;;
13834;SDS011;6988;52.614;13.500;2022-11-20T23:43:37;19.07;;;15.30;;
13834;SDS011;6988;52.614;13.500;2022-11-20T23:48:29;18.10;;;15.17;;
13834;SDS011;6988;52.614;13.500;2022-11-20T23:53:23;18.20;;;14.67;;
13834;SDS011;6988;52.614;13.500;2022-11-20T23:58:16;19.23;;;15.53;;
